Time;durP1;ratioP1;P1;durP2;ratioP2;P2;SDS_P1;SDS_P2;PMS_P1;PMS_P2;Temp;Humidity;BMP_temperature;BMP_pressure;BME280_temperature;BME280_humidity;BME280_pressure;Samples;Min_cycle;Max_cycle;Signal;HPM_P1;HPM_P2
2021/12/16 04:27:26;;;;;;;;;;;-0.60;99.90;;;;;;5113431;27;19918;-92
2021/12/16 04:59:10;;;;;;;;;;;-0.40;99.90;;;;;;5107483;27;19919;-93
2021/12/16 05:01:37;;;;;;;;;;;-0.40;99.90;;;;;;5105456;28;20007;-96
2021/12/16 05:04:03;;;;;;;;;;;-0.40;99.90;;;;;;5070695;28;20003;-94
2021/12/16 05:06:29;;;;;;;;;;;-0.30;99.90;;;;;;5070603;28;20388;-95
2021/12/16 05:08:54;;;;;;;;;;;-0.20;99.90;;;;;;5070547;28;19908;-95
2021/12/16 05:11:20;;;;;;;;;;;-0.10;99.90;;;;;;5070513;28;19913;-94
2021/12/16 15:09:54;;;;;;;;;;;1.30;99.90;;;;;;5015832;27;2481709;-92
2021/12/16 15:43:17;;;;;;;;;;;2.00;99.90;;;;;;5102531;27;19923;-94
2021/12/16 15:45:47;;;;;;;;;;;2.00;99.90;;;;;;5064466;28;19913;-94
2021/12/16 15:48:13;;;;;;;;;;;2.00;99.90;;;;;;5053526;28;19909;-96
2021/12/16 15:50:42;;;;;;;;;;;2.10;99.90;;;;;;5085459;28;20008;-96
2021/12/16 15:53:12;;;;;;;;;;;2.10;99.90;;;;;;5054417;28;19913;-96
2021/12/16 16:25:51;;;;;;;;;;;1.70;99.90;;;;;;5038748;28;19991;-96
2021/12/16 16:28:18;;;;;;;;;;;1.70;99.90;;;;;;5030694;28;19917;-96
2021/12/16 16:31:04;;;;;;;;;;;1.70;99.90;;;;;;5014774;28;19963;-95
2021/12/16 16:33:35;;;;;;;;;;;1.80;99.90;;;;;;4993867;28;19921;-96
2021/12/16 16:36:06;;;;;;;;;;;1.90;99.90;;;;;;4979878;28;20386;-96
2021/12/16 16:38:33;;;;;;;;;;;2.00;99.90;;;;;;4993189;28;20010;-95
2021/12/16 16:41:01;;;;;;;;;;;2.00;99.90;;;;;;4977152;28;19910;-94
2021/12/16 16:43:35;;;;;;;;;;;2.20;99.90;;;;;;5024468;28;19917;-93
2021/12/16 16:46:03;;;;;;;;;;;2.20;99.90;;;;;;4997964;28;19949;-93
2021/12/16 16:49:05;;;;;;;;;;;2.30;99.90;;;;;;5020606;28;19909;-93
2021/12/16 16:51:46;;;;;;;;;;;2.30;99.90;;;;;;5011508;28;19967;-95
2021/12/16 16:54:40;;;;;;;;;;;2.40;99.90;;;;;;5014884;28;20363;-96
2021/12/16 16:57:10;;;;;;;;;;;2.40;99.90;;;;;;5030546;28;19960;-95
2021/12/16 16:59:38;;;;;;;;;;;2.50;99.90;;;;;;5000282;28;19913;-94
2021/12/16 17:02:24;;;;;;;;;;;2.50;99.90;;;;;;4996878;28;19914;-94
2021/12/16 17:04:56;;;;;;;;;;;2.50;99.90;;;;;;5005378;28;19916;-95
2021/12/16 17:07:22;;;;;;;;;;;2.60;99.90;;;;;;4992610;28;20004;-94
2021/12/16 17:09:47;;;;;;;;;;;2.60;99.90;;;;;;4992076;28;19909;-94
2021/12/16 17:12:14;;;;;;;;;;;2.60;99.90;;;;;;4993267;28;20416;-95
2021/12/16 17:14:49;;;;;;;;;;;2.60;99.90;;;;;;4996267;28;20396;-94
2021/12/16 17:17:23;;;;;;;;;;;2.60;99.90;;;;;;4993808;28;19910;-95
2021/12/16 17:20:00;;;;;;;;;;;2.70;99.90;;;;;;5004814;28;19909;-95
2021/12/16 17:22:34;;;;;;;;;;;2.70;99.90;;;;;;4994840;28;19918;-95
2021/12/16 18:54:27;;;;;;;;;;;2.40;99.90;;;;;;5063714;28;19921;-93
2021/12/16 18:55:21;;;;;;;;;;;2.40;99.90;;;;;;5071527;28;19913;-94
2021/12/16 18:57:46;;;;;;;;;;;2.50;99.90;;;;;;5053619;28;19962;-95
2021/12/16 19:00:12;;;;;;;;;;;2.60;99.90;;;;;;5054051;28;19908;-93
2021/12/16 19:02:38;;;;;;;;;;;2.60;99.90;;;;;;5055630;28;19944;-94
2021/12/16 19:05:04;;;;;;;;;;;2.70;99.90;;;;;;5057676;28;19932;-94
2021/12/16 19:07:31;;;;;;;;;;;2.90;99.90;;;;;;5053287;28;19909;-95
2021/12/16 19:09:58;;;;;;;;;;;2.90;99.90;;;;;;5053322;28;19963;-94
2021/12/16 19:12:26;;;;;;;;;;;3.00;99.90;;;;;;5056259;28;20007;-96
2021/12/16 19:15:12;;;;;;;;;;;3.10;99.90;;;;;;5055160;28;19908;-93
2021/12/16 19:17:38;;;;;;;;;;;3.20;99.90;;;;;;5047360;28;20384;-94
2021/12/16 19:20:05;;;;;;;;;;;3.30;99.90;;;;;;5053174;28;19909;-94
2021/12/16 19:22:31;;;;;;;;;;;3.30;99.90;;;;;;5052854;28;20354;-95
2021/12/16 19:24:57;;;;;;;;;;;3.40;99.90;;;;;;5053028;28;20079;-96
2021/12/16 19:27:22;;;;;;;;;;;3.40;99.90;;;;;;5043432;28;20419;-94
2021/12/16 19:29:49;;;;;;;;;;;3.50;99.90;;;;;;5052902;28;19955;-94
2021/12/16 19:32:17;;;;;;;;;;;3.50;99.90;;;;;;5047277;28;19915;-94
2021/12/16 19:34:44;;;;;;;;;;;3.50;99.90;;;;;;5052767;28;20286;-95
2021/12/16 19:37:10;;;;;;;;;;;3.60;99.90;;;;;;5052780;28;19923;-95
2021/12/16 19:39:35;;;;;;;;;;;3.70;99.90;;;;;;5052864;28;19999;-94
2021/12/16 19:42:01;;;;;;;;;;;3.70;99.90;;;;;;5052031;28;19919;-95
2021/12/16 19:44:27;;;;;;;;;;;3.80;99.90;;;;;;5047470;28;20003;-95
2021/12/16 19:46:53;;;;;;;;;;;3.80;99.90;;;;;;5052758;28;19956;-95
2021/12/16 19:49:20;;;;;;;;;;;3.80;99.90;;;;;;5053083;28;19916;-94
2021/12/16 19:51:49;;;;;;;;;;;3.80;99.90;;;;;;5052068;28;19929;-94
2021/12/16 19:54:18;;;;;;;;;;;3.90;99.90;;;;;;5052311;28;20026;-95
2021/12/16 19:56:44;;;;;;;;;;;3.90;99.90;;;;;;5050735;28;19919;-94
2021/12/16 19:59:10;;;;;;;;;;;3.90;99.90;;;;;;5051728;28;19916;-94
2021/12/16 20:01:38;;;;;;;;;;;4.00;99.90;;;;;;5049485;28;20010;-94
2021/12/16 20:04:06;;;;;;;;;;;4.00;99.90;;;;;;5036543;28;20357;-93
2021/12/16 20:06:33;;;;;;;;;;;4.00;99.90;;;;;;5034073;28;19913;-92
2021/12/16 20:08:59;;;;;;;;;;;4.00;99.90;;;;;;5031270;28;19925;-94
2021/12/16 20:11:27;;;;;;;;;;;4.00;99.90;;;;;;5036558;28;19916;-92
2021/12/16 20:13:53;;;;;;;;;;;4.00;99.90;;;;;;5037979;28;20361;-91
2021/12/16 20:16:21;;;;;;;;;;;4.00;99.90;;;;;;5034953;28;19912;-93
2021/12/16 20:44:13;;;;;;;;;;;4.00;99.90;;;;;;5015729;23;19926;-96
2021/12/16 20:54:33;;;;;;;;;;;4.10;99.90;;;;;;5272905;23;19926;-93
2021/12/16 20:56:59;;;;;;;;;;;4.10;99.90;;;;;;4949004;29;19993;-95
2021/12/16 20:59:27;;;;;;;;;;;4.10;99.90;;;;;;4948894;28;20001;-93
2021/12/16 21:01:59;;;;;;;;;;;4.10;99.90;;;;;;4949227;28;19922;-94
2021/12/16 21:04:26;;;;;;;;;;;4.20;99.90;;;;;;4946547;28;19910;-92
2021/12/16 21:06:54;;;;;;;;;;;4.20;99.90;;;;;;4951716;29;19911;-93
2021/12/16 21:09:21;;;;;;;;;;;4.20;99.90;;;;;;4949214;28;19941;-92
2021/12/16 21:11:47;;;;;;;;;;;4.20;99.90;;;;;;4948031;28;19934;-93
2021/12/16 21:14:12;;;;;;;;;;;4.20;99.90;;;;;;4943909;29;19926;-93
2021/12/16 21:23:52;;;;;;;;;;;4.10;99.90;;;;;;5071441;28;19920;-94
2021/12/16 21:26:18;;;;;;;;;;;4.10;99.90;;;;;;5053496;28;20324;-92
2021/12/16 21:28:44;;;;;;;;;;;4.00;99.90;;;;;;5051235;28;19945;-92
